Time;durP1;ratioP1;P1;durP2;ratioP2;P2;SDS_P1;SDS_P2;PMS_P1;PMS_P2;Temp;Humidity;BMP_temperature;BMP_pressure;BME280_temperature;BME280_humidity;BME280_pressure;Samples;Min_cycle;Max_cycle;Signal;HPM_P1;HPM_P2
2023/01/22 00:00:59;;;;;;;19.85;11.18;;;1.00;99.90;;;;;;4998069;28;95662;-75
2023/01/22 00:03:26;;;;;;;25.88;14.02;;;0.90;99.90;;;;;;5031502;28;93629;-75
2023/01/22 00:05:53;;;;;;;31.58;14.82;;;0.90;99.90;;;;;;5014553;28;92621;-75
2023/01/22 00:08:20;;;;;;;24.75;14.18;;;0.80;99.90;;;;;;5014781;28;92528;-75
2023/01/22 00:10:52;;;;;;;26.00;13.57;;;0.80;99.90;;;;;;5030637;28;96507;-76
2023/01/22 00:13:20;;;;;;;26.67;15.35;;;0.80;99.90;;;;;;5016131;28;93064;-77
2023/01/22 00:15:48;;;;;;;15.00;9.80;;;0.70;99.90;;;;;;5014064;28;92441;-76
2023/01/22 00:18:16;;;;;;;19.58;11.63;;;0.80;99.90;;;;;;5016249;28;92371;-77
2023/01/22 00:20:50;;;;;;;23.90;14.18;;;0.80;99.90;;;;;;5013993;28;95513;-76
2023/01/22 00:23:20;;;;;;;18.05;10.40;;;0.80;99.90;;;;;;5013908;28;96779;-76
2023/01/22 00:25:47;;;;;;;18.58;10.90;;;0.80;99.90;;;;;;5015560;28;92345;-77
2023/01/22 00:28:15;;;;;;;17.45;10.63;;;0.70;99.90;;;;;;5030792;27;97914;-77
2023/01/22 00:30:42;;;;;;;17.08;10.07;;;0.70;99.90;;;;;;5047419;27;93283;-77
2023/01/22 00:33:10;;;;;;;16.00;10.35;;;0.60;99.90;;;;;;5047610;27;95656;-77
2023/01/22 00:35:37;;;;;;;28.33;15.10;;;0.60;99.90;;;;;;4996465;28;93057;-76
2023/01/22 00:38:05;;;;;;;19.63;11.57;;;0.50;99.90;;;;;;5014718;28;91743;-77
2023/01/22 00:40:32;;;;;;;21.67;13.60;;;0.50;99.90;;;;;;5046969;27;96023;-76
2023/01/22 00:42:59;;;;;;;24.33;13.63;;;0.50;99.90;;;;;;5013835;28;92491;-76
2023/01/22 00:45:27;;;;;;;19.75;12.48;;;0.40;99.90;;;;;;5012759;28;94935;-76
2023/01/22 00:47:54;;;;;;;25.15;14.38;;;0.40;99.90;;;;;;5047659;27;92542;-76
2023/01/22 00:50:21;;;;;;;25.05;14.43;;;0.30;99.90;;;;;;5030840;27;93151;-76
2023/01/22 00:52:48;;;;;;;20.95;12.60;;;0.30;99.90;;;;;;5013624;28;96070;-76
2023/01/22 00:55:15;;;;;;;27.33;14.65;;;0.30;99.90;;;;;;5015328;28;92515;-76
2023/01/22 00:57:42;;;;;;;31.58;16.77;;;0.30;99.90;;;;;;4997223;28;92408;-76
2023/01/22 01:00:13;;;;;;;27.75;16.05;;;0.20;99.90;;;;;;5015173;28;93399;-76
2023/01/22 01:05:26;;;;;;;24.90;13.25;;;0.20;99.90;;;;;;4999481;28;93669;-76
2023/01/22 01:07:53;;;;;;;25.67;14.25;;;0.20;99.90;;;;;;5030103;28;92383;-75
2023/01/22 01:10:20;;;;;;;24.35;13.70;;;0.20;99.90;;;;;;5028552;28;96822;-75
2023/01/22 01:12:47;;;;;;;29.92;15.60;;;0.20;99.90;;;;;;5013192;28;98258;-76
2023/01/22 01:15:17;;;;;;;28.30;14.68;;;0.10;99.90;;;;;;4997590;28;92451;-76
2023/01/22 01:17:45;;;;;;;24.98;13.75;;;0.10;99.90;;;;;;5030184;28;92479;-75
2023/01/22 01:20:12;;;;;;;24.60;14.20;;;0.10;99.90;;;;;;4996789;28;96078;-75
2023/01/22 01:22:39;;;;;;;30.80;15.02;;;0.10;99.90;;;;;;5013669;28;93064;-76
2023/01/22 01:25:06;;;;;;;28.38;15.07;;;0.10;99.90;;;;;;5015062;28;92437;-75
2023/01/22 01:27:33;;;;;;;27.38;14.85;;;0.10;99.90;;;;;;5047632;27;91937;-76
2023/01/22 01:30:00;;;;;;;25.10;14.45;;;0.10;99.90;;;;;;5014542;28;93494;-75
2023/01/22 01:32:27;;;;;;;28.73;13.95;;;0.10;99.90;;;;;;5013172;28;95542;-75
2023/01/22 01:34:54;;;;;;;23.52;11.85;;;0.20;99.90;;;;;;5045664;27;94934;-75
2023/01/22 01:37:23;;;;;;;24.67;13.63;;;0.30;99.90;;;;;;5013545;28;92526;-75
2023/01/22 01:39:53;;;;;;;25.17;12.57;;;0.30;99.90;;;;;;5012657;28;96244;-75
2023/01/22 01:42:28;;;;;;;25.70;12.73;;;0.50;99.90;;;;;;5029867;28;95834;-76
2023/01/22 01:45:20;;;;;;;22.05;12.95;;;0.60;99.90;;;;;;5013002;28;92478;-76
2023/01/22 01:47:51;;;;;;;19.08;11.52;;;0.80;99.90;;;;;;5016529;28;92445;-76
2023/01/22 01:50:19;;;;;;;17.33;11.35;;;0.90;99.90;;;;;;5018326;28;93580;-76
2023/01/22 01:52:47;;;;;;;23.27;12.00;;;0.90;99.90;;;;;;5016689;28;95230;-76
2023/01/22 01:55:23;;;;;;;20.65;12.60;;;1.00;99.90;;;;;;4999970;28;92481;-76
2023/01/22 01:57:51;;;;;;;17.80;11.25;;;1.10;99.90;;;;;;5032909;28;92501;-75
2023/01/22 02:00:19;;;;;;;20.40;12.23;;;1.20;99.90;;;;;;5015046;28;98339;-75
2023/01/22 02:02:47;;;;;;;16.88;11.38;;;1.20;99.90;;;;;;4999489;28;96529;-77
2023/01/22 02:05:19;;;;;;;17.67;10.63;;;1.30;99.90;;;;;;5016578;28;92670;-77
2023/01/22 02:07:47;;;;;;;17.27;10.52;;;1.40;99.90;;;;;;4999617;28;92702;-77
2023/01/22 02:10:14;;;;;;;17.35;8.18;;;1.40;99.90;;;;;;5050048;27;95702;-77
2023/01/22 02:12:44;;;;;;;15.35;9.77;;;1.50;99.90;;;;;;5018481;28;93317;-77
2023/01/22 02:15:12;;;;;;;14.45;8.90;;;1.50;99.90;;;;;;5017020;28;92431;-76
2023/01/22 02:17:39;;;;;;;15.02;9.20;;;1.60;99.90;;;;;;5017086;28;91721;-77
2023/01/22 02:20:07;;;;;;;9.73;7.20;;;1.60;99.90;;;;;;5033025;28;94377;-77
2023/01/22 02:22:37;;;;;;;9.77;6.20;;;1.60;99.90;;;;;;5018009;28;94040;-76
2023/01/22 02:25:05;;;;;;;11.15;8.40;;;1.60;99.90;;;;;;5015177;28;94941;-77
2023/01/22 02:27:32;;;;;;;12.60;7.10;;;1.70;99.90;;;;;;5016530;28;92472;-76
2023/01/22 02:29:59;;;;;;;11.98;7.85;;;1.70;99.90;;;;;;5049869;27;93305;-76
2023/01/22 02:32:27;;;;;;;9.57;7.15;;;1.70;99.90;;;;;;5050231;27;95334;-76
2023/01/22 02:34:55;;;;;;;11.48;6.63;;;1.80;99.90;;;;;;4999720;28;92498;-76
2023/01/22 02:37:22;;;;;;;8.30;6.13;;;1.80;99.90;;;;;;4999784;28;92551;-76
2023/01/22 02:39:50;;;;;;;9.30;6.85;;;1.90;99.90;;;;;;5049386;27;95635;-76
2023/01/22 02:42:17;;;;;;;5.22;4.63;;;1.90;99.90;;;;;;5016603;28;95722;-76
2023/01/22 02:44:44;;;;;;;7.35;5.75;;;1.90;99.90;;;;;;4999734;28;92531;-76
2023/01/22 02:47:12;;;;;;;8.80;6.25;;;1.90;99.90;;;;;;5016137;28;92514;-76
2023/01/22 02:49:39;;;;;;;7.45;4.30;;;1.90;99.90;;;;;;5031420;28;98263;-77
2023/01/22 02:52:06;;;;;;;9.23;6.65;;;2.00;99.90;;;;;;4999023;28;98029;-76
2023/01/22 02:54:33;;;;;;;9.65;6.30;;;2.00;99.90;;;;;;5016331;28;92502;-76
2023/01/22 02:57:00;;;;;;;11.77;6.05;;;2.00;99.90;;;;;;5016164;28;92545;-76
2023/01/22 02:59:28;;;;;;;7.63;5.85;;;2.00;99.90;;;;;;5048719;27;93275;-76
2023/01/22 03:01:56;;;;;;;5.97;5.38;;;2.10;99.90;;;;;;5015814;28;95525;-76
2023/01/22 03:04:24;;;;;;;9.50;5.75;;;2.00;99.90;;;;;;5032523;28;92459;-76
2023/01/22 03:06:51;;;;;;;11.05;5.70;;;2.10;99.90;;;;;;5016318;28;91766;-76
2023/01/22 03:09:19;;;;;;;8.75;6.68;;;2.00;99.90;;;;;;5015702;28;95855;-76
2023/01/22 03:11:46;;;;;;;6.22;4.55;;;2.10;99.90;;;;;;4999460;28;95681;-76
2023/01/22 03:22:43;;;;;;;9.93;5.20;;;2.10;99.90;;;;;;5015575;28;95800;-76
2023/01/22 03:25:10;;;;;;;5.88;5.28;;;2.10;99.90;;;;;;5017170;28;92325;-76
2023/01/22 03:28:07;;;;;;;8.20;5.80;;;2.20;99.90;;;;;;5032385;28;92610;-77
2023/01/22 03:30:27;;;;;;;6.30;5.60;;;2.20;99.90;;;;;;5048886;27;96083;-75
2023/01/22 03:32:55;;;;;;;5.70;3.78;;;2.20;99.90;;;;;;5049717;27;93011;-76
2023/01/22 03:35:22;;;;;;;7.88;5.97;;;2.20;99.90;;;;;;5017191;28;92414;-75
2023/01/22 03:38:02;;;;;;;8.00;5.85;;;2.20;99.90;;;;;;4986294;28;92526;-75
2023/01/22 03:40:29;;;;;;;6.25;5.20;;;2.20;99.90;;;;;;5030311;28;97936;-75
2023/01/22 03:42:56;;;;;;;7.82;4.90;;;2.20;99.90;;;;;;5015422;28;97746;-76
2023/01/22 03:45:23;;;;;;;4.43;3.85;;;2.20;99.90;;;;;;5031764;28;92559;-76
2023/01/22 03:47:52;;;;;;;5.35;4.13;;;2.20;99.90;;;;;;5032368;27;92524;-77
2023/01/22 03:50:26;;;;;;;7.25;5.25;;;2.20;99.90;;;;;;5015134;28;95242;-75
2023/01/22 03:52:56;;;;;;;8.73;6.22;;;2.30;99.90;;;;;;5015054;28;95346;-75
2023/01/22 03:55:24;;;;;;;5.78;4.63;;;2.30;99.90;;;;;;5015226;28;92663;-76
2023/01/22 03:57:52;;;;;;;7.75;5.68;;;2.20;99.90;;;;;;5015561;28;91791;-75
2023/01/22 04:00:20;;;;;;;6.15;5.40;;;2.20;99.90;;;;;;5016317;28;93299;-75
2023/01/22 04:02:49;;;;;;;9.23;5.50;;;2.30;99.90;;;;;;5016196;28;92823;-75
2023/01/22 04:05:20;;;;;;;7.07;6.30;;;2.30;99.90;;;;;;5047489;27;94835;-77
2023/01/22 04:07:49;;;;;;;10.00;6.30;;;2.30;99.90;;;;;;5031648;28;92553;-77
2023/01/22 04:10:19;;;;;;;6.55;5.10;;;2.30;99.90;;;;;;5014392;28;95610;-77
2023/01/22 04:12:49;;;;;;;4.25;3.83;;;2.30;99.90;;;;;;5031058;28;95757;-77
2023/01/22 04:15:19;;;;;;;6.60;5.13;;;2.30;99.90;;;;;;5014674;28;92467;-77
2023/01/22 04:17:47;;;;;;;8.45;5.85;;;2.20;99.90;;;;;;5015045;28;92519;-76
2023/01/22 04:20:41;;;;;;;6.72;5.10;;;2.30;99.90;;;;;;5012293;28;94318;-77
2023/01/22 04:23:22;;;;;;;5.28;4.20;;;2.20;99.90;;;;;;5000007;28;95428;-76
2023/01/22 04:25:51;;;;;;;7.07;4.97;;;2.20;99.90;;;;;;5014659;28;92445;-76
2023/01/22 04:28:19;;;;;;;8.32;6.55;;;2.20;99.90;;;;;;5031209;28;92510;-77
2023/01/22 04:30:53;;;;;;;5.88;5.00;;;2.20;99.90;;;;;;5013175;28;98400;-76
2023/01/22 04:33:39;;;;;;;4.88;4.22;;;2.20;99.90;;;;;;5015194;28;94878;-76
2023/01/22 04:36:17;;;;;;;7.65;5.95;;;2.10;99.90;;;;;;5014374;28;92556;-76
2023/01/22 04:38:44;;;;;;;4.53;3.58;;;2.10;99.90;;;;;;5014626;28;92445;-76
2023/01/22 04:41:11;;;;;;;5.35;4.95;;;2.10;99.90;;;;;;5014071;28;94801;-76
2023/01/22 04:43:38;;;;;;;6.15;5.28;;;2.10;99.90;;;;;;5014235;28;96045;-76
2023/01/22 04:46:06;;;;;;;5.88;5.18;;;2.10;99.90;;;;;;5014409;28;92518;-76
2023/01/22 04:48:33;;;;;;;7.63;5.90;;;2.20;99.90;;;;;;4998455;28;91744;-76
2023/01/22 04:51:00;;;;;;;5.75;5.15;;;2.20;99.90;;;;;;5014224;28;95653;-77
2023/01/22 04:53:29;;;;;;;6.32;5.65;;;2.20;99.90;;;;;;4997689;28;95467;-77
2023/01/22 04:55:56;;;;;;;6.07;4.90;;;2.10;99.90;;;;;;5029816;28;95072;-76
2023/01/22 04:58:24;;;;;;;6.55;5.32;;;2.20;99.90;;;;;;4997769;28;92486;-76
2023/01/22 05:00:57;;;;;;;6.55;5.50;;;2.20;99.90;;;;;;5014167;28;95595;-76
2023/01/22 05:03:24;;;;;;;8.10;5.03;;;2.10;99.90;;;;;;5014035;28;95245;-77
2023/01/22 05:05:51;;;;;;;7.63;5.63;;;2.10;99.90;;;;;;4997780;28;92867;-75
2023/01/22 05:08:18;;;;;;;6.63;4.53;;;2.10;99.90;;;;;;5014172;28;92534;-76
2023/01/22 05:10:45;;;;;;;9.25;5.32;;;2.10;99.90;;;;;;5013887;28;95412;-77
2023/01/22 05:13:19;;;;;;;9.63;5.03;;;2.10;99.90;;;;;;5014701;28;92981;-76
2023/01/22 05:15:46;;;;;;;7.63;5.53;;;2.10;99.90;;;;;;5013983;28;92994;-76
2023/01/22 05:18:13;;;;;;;9.48;5.50;;;2.10;99.90;;;;;;4997325;28;92504;-76
2023/01/22 05:20:46;;;;;;;5.75;4.85;;;2.10;99.90;;;;;;4996907;28;98233;-76
2023/01/22 05:23:14;;;;;;;8.10;5.88;;;2.10;99.90;;;;;;5015925;28;97938;-76
2023/01/22 05:25:47;;;;;;;2.75;2.20;;;2.10;99.90;;;;;;5017722;28;92480;-76
2023/01/22 05:28:15;;;;;;;7.18;5.75;;;2.20;99.90;;;;;;5017059;28;92487;-76
2023/01/22 05:31:09;;;;;;;5.97;5.00;;;2.10;99.90;;;;;;5041694;27;93068;-76
2023/01/22 05:33:43;;;;;;;7.22;4.72;;;2.10;99.90;;;;;;5018793;28;92946;-76
2023/01/22 05:36:11;;;;;;;5.00;4.53;;;2.20;99.90;;;;;;5017706;28;92552;-77
2023/01/22 05:38:38;;;;;;;6.18;5.05;;;2.10;99.90;;;;;;5017352;28;91831;-77
2023/01/22 05:41:06;;;;;;;5.72;5.03;;;2.10;99.90;;;;;;5000383;28;94235;-77
2023/01/22 05:43:37;;;;;;;9.85;5.60;;;2.10;99.90;;;;;;5000749;28;95434;-76
2023/01/22 05:46:08;;;;;;;5.53;4.65;;;2.10;99.90;;;;;;5032193;28;94935;-76
2023/01/22 05:48:56;;;;;;;6.88;5.57;;;2.10;99.90;;;;;;5018218;28;92437;-76
2023/01/22 05:51:25;;;;;;;6.70;5.35;;;2.10;99.90;;;;;;5033144;28;96084;-77
2023/01/22 05:53:52;;;;;;;7.45;4.82;;;2.00;99.90;;;;;;5017217;28;92531;-76
2023/01/22 05:56:19;;;;;;;5.88;4.78;;;2.10;99.90;;;;;;5034115;27;92423;-76
2023/01/22 05:58:46;;;;;;;5.28;4.78;;;2.00;99.90;;;;;;5033844;28;92451;-76
2023/01/22 06:01:13;;;;;;;6.90;5.05;;;2.00;99.90;;;;;;5033693;28;96074;-76
2023/01/22 06:03:44;;;;;;;4.72;3.33;;;2.00;99.90;;;;;;5017261;28;95680;-76
2023/01/22 06:06:15;;;;;;;6.20;5.05;;;2.00;99.90;;;;;;5016943;28;92555;-75
2023/01/22 06:08:44;;;;;;;5.47;4.97;;;2.00;99.90;;;;;;5033223;28;93388;-75
2023/01/22 06:11:14;;;;;;;5.82;4.43;;;2.00;99.90;;;;;;5015531;28;97501;-75
2023/01/22 06:13:44;;;;;;;5.95;4.57;;;1.90;99.90;;;;;;5032848;28;98643;-76
2023/01/22 06:16:19;;;;;;;5.93;5.07;;;1.90;99.90;;;;;;5001104;28;93074;-75
2023/01/22 06:18:58;;;;;;;5.13;4.68;;;1.90;99.90;;;;;;5050434;27;92406;-76
2023/01/22 06:21:28;;;;;;;5.38;4.88;;;1.90;99.90;;;;;;5000625;28;95214;-76
2023/01/22 06:23:56;;;;;;;5.93;5.10;;;1.90;99.90;;;;;;5050258;27;96033;-76
2023/01/22 06:26:23;;;;;;;4.47;3.92;;;1.90;99.90;;;;;;5016390;28;92473;-77
2023/01/22 06:28:51;;;;;;;7.30;4.28;;;1.80;99.90;;;;;;5018329;28;91817;-76
2023/01/22 06:31:21;;;;;;;6.65;6.03;;;1.90;99.90;;;;;;5017982;28;93237;-76
2023/01/22 06:33:48;;;;;;;7.43;4.25;;;1.90;99.90;;;;;;4999792;28;95224;-76
2023/01/22 06:36:15;;;;;;;7.68;5.63;;;1.90;99.90;;;;;;5015242;28;94930;-76
2023/01/22 06:38:42;;;;;;;5.40;4.90;;;1.90;99.90;;;;;;5033014;28;92986;-76
2023/01/22 06:41:13;;;;;;;6.90;5.55;;;1.80;99.90;;;;;;5016231;28;95522;-76
2023/01/22 06:43:42;;;;;;;5.72;5.13;;;1.90;99.90;;;;;;5016110;28;95451;-77
2023/01/22 06:46:10;;;;;;;7.57;5.80;;;1.90;99.90;;;;;;5032835;28;92445;-76
2023/01/22 06:49:01;;;;;;;8.98;6.25;;;2.00;99.90;;;;;;5008956;28;92465;-76
2023/01/22 06:51:29;;;;;;;6.13;5.53;;;1.90;99.90;;;;;;5015775;28;96269;-76
2023/01/22 06:53:57;;;;;;;5.78;5.03;;;2.00;99.90;;;;;;5016489;28;95899;-76
2023/01/22 06:56:25;;;;;;;6.63;5.90;;;2.00;99.90;;;;;;5016462;28;92472;-75
2023/01/22 06:58:52;;;;;;;5.85;5.18;;;2.00;99.90;;;;;;5016282;28;92495;-76
2023/01/22 07:01:19;;;;;;;7.13;6.43;;;2.00;99.90;;;;;;5031099;28;98012;-76
2023/01/22 07:03:46;;;;;;;6.32;5.70;;;2.00;99.90;;;;;;5016884;28;95385;-78
2023/01/22 07:06:14;;;;;;;7.65;6.93;;;2.00;99.90;;;;;;5017315;28;92407;-76
2023/01/22 07:08:41;;;;;;;10.05;7.43;;;2.00;99.90;;;;;;5017057;28;92935;-76
2023/01/22 07:11:09;;;;;;;6.55;5.35;;;2.00;99.90;;;;;;5015742;28;99318;-75
2023/01/22 07:13:36;;;;;;;6.40;5.43;;;2.00;99.90;;;;;;5017041;28;93010;-76
2023/01/22 07:16:04;;;;;;;8.50;7.70;;;2.00;99.90;;;;;;5016132;28;92406;-76
2023/01/22 07:18:31;;;;;;;7.00;5.88;;;2.00;99.90;;;;;;5016021;28;91791;-76
2023/01/22 07:21:03;;;;;;;8.73;6.82;;;2.00;99.90;;;;;;5049330;27;93169;-75
2023/01/22 07:23:30;;;;;;;6.43;5.82;;;2.00;99.90;;;;;;5049259;27;92920;-76
2023/01/22 07:25:57;;;;;;;7.32;6.57;;;2.00;99.90;;;;;;5016061;28;94850;-77
2023/01/22 07:28:24;;;;;;;7.60;6.88;;;2.00;99.90;;;;;;5015537;28;92531;-75
2023/01/22 07:30:51;;;;;;;8.70;7.65;;;2.00;99.90;;;;;;5015331;28;95734;-76
2023/01/22 07:33:18;;;;;;;5.03;4.57;;;2.00;99.90;;;;;;5016661;28;93108;-76
2023/01/22 07:35:54;;;;;;;11.23;5.57;;;2.00;99.90;;;;;;5049130;27;92462;-76
2023/01/22 07:38:22;;;;;;;9.63;6.55;;;2.00;99.90;;;;;;5049269;27;92479;-75
2023/01/22 07:40:52;;;;;;;7.28;6.60;;;2.00;99.90;;;;;;5016254;28;93180;-77
2023/01/22 07:43:19;;;;;;;6.88;6.13;;;2.00;99.90;;;;;;5017143;28;93158;-77
2023/01/22 07:45:46;;;;;;;5.03;4.63;;;2.00;99.90;;;;;;5016137;28;93669;-77
2023/01/22 07:48:13;;;;;;;6.43;4.00;;;2.00;99.90;;;;;;5048823;27;94101;-76
2023/01/22 07:50:40;;;;;;;8.30;6.65;;;1.90;99.90;;;;;;5030586;28;95983;-76
2023/01/22 07:53:08;;;;;;;5.38;4.88;;;1.90;99.90;;;;;;5015449;28;95716;-76
2023/01/22 07:55:35;;;;;;;6.85;6.18;;;2.00;99.90;;;;;;5048627;27;92531;-75
2023/01/22 07:58:04;;;;;;;3.58;3.28;;;2.00;99.90;;;;;;5015135;28;92516;-76
2023/01/22 08:00:34;;;;;;;6.90;6.22;;;2.00;99.90;;;;;;5031908;27;95792;-76
2023/01/22 08:03:04;;;;;;;5.03;4.53;;;1.90;99.90;;;;;;5016324;28;92884;-76
2023/01/22 08:05:31;;;;;;;6.38;5.45;;;2.00;99.90;;;;;;5016242;28;92347;-76
2023/01/22 08:07:58;;;;;;;7.32;6.53;;;2.00;99.90;;;;;;5016700;28;91869;-77
2023/01/22 08:10:25;;;;;;;4.95;4.47;;;2.00;99.90;;;;;;5015129;28;93308;-78
2023/01/22 08:12:52;;;;;;;6.53;5.93;;;2.00;99.90;;;;;;5015950;28;93003;-77
2023/01/22 08:15:19;;;;;;;7.97;6.15;;;2.10;99.90;;;;;;4997348;28;94886;-77
2023/01/22 08:17:49;;;;;;;5.65;5.07;;;2.10;99.90;;;;;;4998371;28;92920;-77
2023/01/22 08:20:16;;;;;;;7.43;5.03;;;2.10;99.90;;;;;;5016043;28;93308;-76
2023/01/22 08:22:44;;;;;;;6.38;5.75;;;2.10;99.90;;;;;;5014738;28;95918;-76
2023/01/22 08:25:11;;;;;;;5.30;4.18;;;2.10;99.90;;;;;;5016530;28;92391;-77
2023/01/22 08:27:38;;;;;;;5.28;3.85;;;2.10;99.90;;;;;;5048092;27;92516;-76
2023/01/22 08:30:07;;;;;;;6.63;5.72;;;2.10;99.90;;;;;;5016130;28;93365;-76
2023/01/22 08:32:34;;;;;;;9.00;6.93;;;2.20;99.90;;;;;;4998666;28;95496;-76
2023/01/22 08:35:01;;;;;;;8.27;7.35;;;2.20;99.90;;;;;;5014644;28;92389;-76
2023/01/22 08:37:28;;;;;;;13.68;7.38;;;2.20;99.90;;;;;;5016285;28;92514;-76
2023/01/22 08:39:55;;;;;;;7.43;6.78;;;2.20;99.90;;;;;;5014076;28;96097;-76
2023/01/22 08:42:22;;;;;;;7.88;5.80;;;2.20;99.90;;;;;;5015975;28;95445;-76
2023/01/22 08:44:49;;;;;;;5.55;4.93;;;2.20;99.90;;;;;;5015825;28;92449;-77
2023/01/22 08:47:16;;;;;;;6.20;5.35;;;2.20;99.90;;;;;;5016193;28;92465;-76
2023/01/22 08:49:43;;;;;;;5.15;4.65;;;2.20;99.90;;;;;;5014381;28;93166;-76
2023/01/22 08:52:10;;;;;;;7.40;6.70;;;2.20;99.90;;;;;;5014597;28;92755;-76
2023/01/22 08:54:37;;;;;;;5.55;4.63;;;2.30;99.90;;;;;;5014704;28;92518;-76
2023/01/22 08:57:04;;;;;;;5.72;5.20;;;2.30;99.90;;;;;;5015069;28;91816;-76
2023/01/22 08:59:31;;;;;;;6.95;5.70;;;2.40;99.90;;;;;;5014327;28;95818;-76
2023/01/22 09:01:59;;;;;;;5.97;5.38;;;2.40;99.90;;;;;;5047684;27;92427;-76
2023/01/22 09:04:27;;;;;;;5.82;4.45;;;2.60;99.90;;;;;;5014678;28;95274;-76
2023/01/22 09:06:54;;;;;;;7.93;6.78;;;2.70;99.90;;;;;;5015607;28;92494;-76
2023/01/22 09:09:22;;;;;;;4.55;4.13;;;2.80;99.90;;;;;;5014038;28;93248;-76
2023/01/22 09:11:49;;;;;;;7.30;5.47;;;2.80;99.90;;;;;;5015409;28;93304;-76
2023/01/22 09:14:16;;;;;;;7.50;6.32;;;2.80;99.90;;;;;;5015747;28;92432;-76
2023/01/22 09:16:43;;;;;;;8.05;6.97;;;2.80;99.90;;;;;;5014104;28;92475;-76
2023/01/22 09:19:10;;;;;;;5.65;5.05;;;2.80;99.90;;;;;;5047841;27;93292;-76
2023/01/22 09:21:37;;;;;;;8.43;7.63;;;2.90;99.90;;;;;;5013985;28;96043;-77
2023/01/22 09:24:05;;;;;;;7.20;6.50;;;2.80;99.90;;;;;;5013975;28;92469;-76
2023/01/22 09:26:33;;;;;;;6.93;6.22;;;2.90;99.90;;;;;;5047461;27;93243;-76
2023/01/22 09:29:02;;;;;;;7.22;6.50;;;2.90;99.90;;;;;;5029469;27;95953;-75
2023/01/22 09:31:30;;;;;;;9.80;6.53;;;2.90;99.90;;;;;;5014082;28;98040;-75
2023/01/22 09:33:58;;;;;;;6.03;5.53;;;2.90;99.90;;;;;;5015293;28;92457;-75
2023/01/22 09:36:26;;;;;;;7.05;6.35;;;3.00;99.90;;;;;;4997415;28;92512;-76
2023/01/22 09:38:53;;;;;;;7.35;6.45;;;3.10;99.90;;;;;;5013288;28;93333;-75
2023/01/22 09:41:28;;;;;;;6.53;5.90;;;3.20;99.90;;;;;;5014071;28;95427;-76
2023/01/22 09:44:16;;;;;;;9.80;7.25;;;3.20;99.90;;;;;;5015285;28;92557;-76
2023/01/22 09:47:02;;;;;;;7.25;6.65;;;3.30;99.90;;;;;;5047990;27;91780;-76
2023/01/22 09:49:48;;;;;;;7.10;6.50;;;3.50;99.90;;;;;;5013261;28;95704;-76
2023/01/22 09:52:16;;;;;;;7.75;6.95;;;3.40;99.90;;;;;;5013931;28;96087;-76
2023/01/22 09:54:43;;;;;;;8.10;7.30;;;3.30;99.90;;;;;;5029210;28;94828;-76
2023/01/22 09:57:14;;;;;;;6.57;5.72;;;3.30;99.90;;;;;;5013488;28;92521;-76
2023/01/22 09:59:57;;;;;;;5.32;4.90;;;3.40;99.90;;;;;;5014798;28;92457;-76
2023/01/22 10:02:36;;;;;;;7.32;6.63;;;3.30;99.90;;;;;;5013963;28;93099;-76
2023/01/22 10:05:13;;;;;;;9.10;7.05;;;3.40;99.90;;;;;;5014959;28;92400;-76
2023/01/22 10:07:46;;;;;;;8.43;7.28;;;3.40;99.90;;;;;;5015250;28;92428;-77
2023/01/22 10:10:23;;;;;;;8.63;7.75;;;3.40;99.90;;;;;;5000026;27;93321;-76
2023/01/22 10:13:00;;;;;;;8.70;7.80;;;3.50;99.90;;;;;;4998788;28;91840;-76
2023/01/22 10:15:27;;;;;;;7.10;5.63;;;3.70;99.90;;;;;;4998443;28;92419;-76
2023/01/22 10:17:55;;;;;;;8.70;6.22;;;3.70;99.90;;;;;;4980154;28;92575;-76
2023/01/22 10:20:23;;;;;;;7.00;6.30;;;3.70;99.90;;;;;;4995258;28;98266;-76
2023/01/22 10:22:54;;;;;;;7.22;6.55;;;3.50;99.90;;;;;;4996702;28;95334;-76
2023/01/22 10:25:21;;;;;;;8.55;7.50;;;3.40;99.90;;;;;;5013801;28;92741;-76
2023/01/22 10:27:58;;;;;;;8.70;7.90;;;3.30;99.90;;;;;;4996752;28;92517;-76
2023/01/22 10:30:27;;;;;;;7.40;6.70;;;3.40;99.90;;;;;;5013158;28;93483;-76
2023/01/22 10:33:17;;;;;;;8.63;7.15;;;3.40;99.90;;;;;;4996431;28;92607;-76
2023/01/22 10:35:49;;;;;;;5.00;4.55;;;3.50;99.90;;;;;;4996830;28;93344;-76
2023/01/22 10:38:34;;;;;;;6.03;5.43;;;3.40;99.90;;;;;;4998441;28;91749;-76
2023/01/22 10:41:03;;;;;;;5.35;4.85;;;3.40;99.90;;;;;;4997031;28;93315;-76
2023/01/22 10:43:34;;;;;;;5.63;5.13;;;3.30;99.90;;;;;;4996302;28;93066;-76
2023/01/22 10:46:05;;;;;;;6.70;6.15;;;3.30;99.90;;;;;;4996502;28;94737;-76
2023/01/22 10:48:33;;;;;;;7.78;7.05;;;3.30;99.90;;;;;;4996707;28;92536;-76
2023/01/22 10:51:25;;;;;;;6.30;5.05;;;3.40;99.90;;;;;;4996146;28;92872;-76
2023/01/22 10:53:56;;;;;;;7.07;6.38;;;3.60;99.90;;;;;;4997708;28;93279;-76
2023/01/22 10:56:34;;;;;;;7.68;6.25;;;3.60;99.90;;;;;;4997892;28;92374;-76
2023/01/22 10:59:15;;;;;;;6.22;5.50;;;3.80;99.90;;;;;;4997637;28;92468;-76
2023/01/22 11:01:42;;;;;;;8.25;6.28;;;3.80;99.90;;;;;;4997462;28;93300;-76
2023/01/22 11:04:32;;;;;;;6.55;5.70;;;3.80;99.90;;;;;;4979795;28;92885;-76
2023/01/22 11:07:07;;;;;;;6.45;5.13;;;3.90;99.90;;;;;;4996569;28;93125;-76
2023/01/22 11:09:40;;;;;;;6.63;5.15;;;3.80;99.90;;;;;;4996073;28;92504;-76
2023/01/22 11:12:30;;;;;;;7.43;6.68;;;3.80;99.90;;;;;;4995726;28;95542;-75
2023/01/22 11:15:24;;;;;;;5.88;5.32;;;3.80;99.90;;;;;;4997291;28;95274;-75
2023/01/22 11:17:55;;;;;;;6.38;5.72;;;3.80;99.90;;;;;;4997541;28;92367;-76
2023/01/22 11:20:47;;;;;;;9.38;6.30;;;3.70;99.90;;;;;;5011077;28;92587;-75
2023/01/22 11:23:31;;;;;;;7.43;6.68;;;3.80;99.90;;;;;;4997093;28;93596;-75
2023/01/22 11:26:14;;;;;;;6.43;5.18;;;3.80;99.90;;;;;;4995936;28;93113;-75
2023/01/22 11:28:47;;;;;;;8.50;6.30;;;3.90;99.90;;;;;;4995780;28;92957;-75
2023/01/22 11:31:14;;;;;;;5.15;4.65;;;3.90;99.90;;;;;;4996106;28;91749;-75
2023/01/22 11:34:08;;;;;;;9.68;6.47;;;4.00;99.90;;;;;;4996862;28;92495;-75
2023/01/22 11:36:44;;;;;;;9.68;6.95;;;3.90;99.90;;;;;;4995306;28;95511;-75
2023/01/22 11:39:23;;;;;;;6.28;5.68;;;3.90;99.90;;;;;;4995262;28;94855;-75
2023/01/22 11:42:17;;;;;;;6.03;5.22;;;4.00;99.90;;;;;;4995365;28;92610;-75
2023/01/22 11:45:22;;;;;;;5.78;4.43;;;4.00;99.90;;;;;;4996775;28;92401;-75
2023/01/22 11:48:22;;;;;;;6.03;5.07;;;3.80;99.90;;;;;;4985835;28;95586;-77
2023/01/22 11:51:18;;;;;;;6.97;6.28;;;3.80;99.90;;;;;;5028951;28;92510;-76
2023/01/22 11:54:22;;;;;;;8.85;6.65;;;3.80;99.90;;;;;;4996497;28;92423;-75
2023/01/22 11:56:52;;;;;;;7.38;6.05;;;3.90;99.90;;;;;;4996697;28;93279;-76
2023/01/22 11:59:56;;;;;;;5.88;4.78;;;3.80;99.90;;;;;;4996430;28;93048;-76
2023/01/22 12:03:03;;;;;;;6.28;5.68;;;3.90;99.90;;;;;;5028407;28;92554;-76
2023/01/22 12:05:58;;;;;;;4.95;4.50;;;3.80;99.90;;;;;;4995091;28;92466;-75
2023/01/22 12:08:25;;;;;;;7.15;5.60;;;3.80;99.90;;;;;;4993157;28;95999;-76
2023/01/22 12:11:04;;;;;;;7.45;6.45;;;3.70;99.90;;;;;;4994973;28;95656;-75
2023/01/22 12:13:46;;;;;;;8.10;6.05;;;3.80;99.90;;;;;;4994707;28;92468;-75
2023/01/22 12:17:00;;;;;;;5.90;4.45;;;3.80;99.90;;;;;;4994664;28;92530;-76
2023/01/22 12:19:57;;;;;;;6.07;4.75;;;3.80;99.90;;;;;;4980141;28;93336;-76
2023/01/22 12:22:43;;;;;;;6.53;4.75;;;3.80;99.90;;;;;;4994448;28;95521;-76
2023/01/22 12:25:24;;;;;;;5.05;3.83;;;3.70;99.90;;;;;;4996193;28;92396;-76
2023/01/22 12:27:59;;;;;;;8.07;5.53;;;3.70;99.90;;;;;;4996685;28;91731;-76
2023/01/22 12:30:51;;;;;;;7.13;6.25;;;3.70;99.90;;;;;;4996153;28;93299;-76
2023/01/22 12:33:37;;;;;;;7.00;5.43;;;3.70;99.90;;;;;;5010797;28;95530;-75
2023/01/22 12:36:08;;;;;;;4.57;4.15;;;3.80;99.90;;;;;;4995154;28;94757;-76
2023/01/22 12:38:45;;;;;;;6.10;5.18;;;3.70;99.90;;;;;;4994771;28;92476;-76
2023/01/22 12:41:34;;;;;;;5.18;4.35;;;3.70;99.90;;;;;;4995432;28;93244;-76
2023/01/22 12:44:52;;;;;;;6.90;5.10;;;3.70;99.90;;;;;;5028163;28;95498;-76
2023/01/22 12:47:36;;;;;;;7.15;5.60;;;3.70;99.90;;;;;;4954257;28;92599;-77
2023/01/22 12:50:19;;;;;;;5.38;4.53;;;3.80;99.90;;;;;;4954297;28;92617;-76
2023/01/22 12:52:57;;;;;;;7.57;5.68;;;3.80;99.90;;;;;;5015374;28;93215;-76
2023/01/22 12:55:31;;;;;;;10.35;5.38;;;3.80;99.90;;;;;;5011032;28;95736;-75
2023/01/22 12:57:58;;;;;;;9.93;6.10;;;3.80;99.90;;;;;;5011201;28;92603;-77
2023/01/22 13:00:30;;;;;;;8.48;6.15;;;3.80;99.90;;;;;;5011203;28;93072;-76
2023/01/22 13:02:57;;;;;;;6.68;4.97;;;3.90;99.90;;;;;;4994303;28;94868;-76
2023/01/22 13:05:31;;;;;;;7.00;5.50;;;3.90;99.90;;;;;;4994122;28;95383;-76
2023/01/22 13:08:05;;;;;;;9.00;7.40;;;3.90;99.90;;;;;;4994547;28;93001;-77
2023/01/22 13:10:35;;;;;;;9.38;6.13;;;4.00;99.90;;;;;;4994253;28;93041;-76
2023/01/22 13:13:12;;;;;;;6.63;3.78;;;4.00;99.90;;;;;;4993665;28;95833;-76
2023/01/22 13:15:40;;;;;;;4.20;3.63;;;4.10;99.90;;;;;;4995386;28;93009;-76
2023/01/22 13:18:23;;;;;;;8.77;6.40;;;4.00;99.90;;;;;;4977767;28;92523;-76
2023/01/22 13:20:59;;;;;;;9.63;5.90;;;4.00;99.90;;;;;;5011364;28;91654;-76
2023/01/22 13:23:26;;;;;;;7.63;5.78;;;4.00;99.90;;;;;;4993564;28;95873;-76
2023/01/22 13:25:55;;;;;;;6.40;4.85;;;4.00;99.90;;;;;;4995427;28;93002;-76
2023/01/22 13:28:23;;;;;;;8.50;6.03;;;4.10;99.90;;;;;;4993979;28;94732;-76